Time;durP1;ratioP1;P1;durP2;ratioP2;P2;SDS_P1;SDS_P2;PMS_P1;PMS_P2;Temp;Humidity;BMP_temperature;BMP_pressure;BME280_temperature;BME280_humidity;BME280_pressure;Samples;Min_cycle;Max_cycle;Signal;HPM_P1;HPM_P2
2022/03/23 00:01:53;;;;;;;;;;;;;;;8.22;87.77;103158.22;5004104;28;20299;-74
2022/03/23 00:04:19;;;;;;;;;;;;;;;8.26;87.84;103157.34;5005392;28;19918;-72
2022/03/23 00:06:44;;;;;;;;;;;;;;;8.20;88.06;103152.97;5008191;28;19928;-72
2022/03/23 00:09:10;;;;;;;;;;;;;;;8.17;88.21;103160.84;5008044;28;19929;-72
2022/03/23 00:11:35;;;;;;;;;;;;;;;8.21;89.12;103156.50;5010011;28;19931;-72
2022/03/23 00:14:00;;;;;;;;;;;;;;;8.13;88.46;103159.09;5009225;28;20016;-72
2022/03/23 00:16:26;;;;;;;;;;;;;;;8.10;88.36;103153.00;5011623;28;20028;-72
2022/03/23 00:18:51;;;;;;;;;;;;;;;8.06;88.71;103152.09;5009346;28;19969;-72
2022/03/23 00:21:16;;;;;;;;;;;;;;;8.03;88.49;103155.59;5009436;28;20303;-72
2022/03/23 00:23:41;;;;;;;;;;;;;;;7.98;88.53;103151.22;5009226;28;19924;-71
2022/03/23 00:26:08;;;;;;;;;;;;;;;7.96;88.94;103151.22;5009143;28;19918;-72
2022/03/23 00:28:33;;;;;;;;;;;;;;;7.91;89.18;103152.09;5008874;28;19933;-72
2022/03/23 00:30:59;;;;;;;;;;;;;;;7.87;89.14;103154.69;5009054;28;20359;-72
2022/03/23 00:33:24;;;;;;;;;;;;;;;7.86;89.43;103149.47;5009157;28;20272;-71
2022/03/23 00:35:49;;;;;;;;;;;;;;;7.83;89.61;103147.69;5008053;28;20353;-73
2022/03/23 00:38:16;;;;;;;;;;;;;;;7.92;90.09;103157.31;5009711;28;19919;-71
2022/03/23 00:40:41;;;;;;;;;;;;;;;7.93;90.68;103155.59;5007204;28;19921;-73
2022/03/23 00:43:06;;;;;;;;;;;;;;;7.89;90.33;103152.06;5009119;28;19967;-72
2022/03/23 00:45:32;;;;;;;;;;;;;;;7.86;91.01;103154.69;5010546;28;19917;-73
2022/03/23 00:47:57;;;;;;;;;;;;;;;7.87;90.56;103149.44;5009146;28;19975;-73
2022/03/23 00:50:23;;;;;;;;;;;;;;;7.89;90.52;103149.44;5008767;28;19928;-73
2022/03/23 00:52:48;;;;;;;;;;;;;;;7.86;91.17;103149.47;5009159;28;19930;-73
2022/03/23 00:55:15;;;;;;;;;;;;;;;7.88;90.76;103153.81;5007447;28;20000;-73
2022/03/23 00:57:40;;;;;;;;;;;;;;;7.84;91.04;103141.59;5008770;28;19983;-73
2022/03/23 01:00:08;;;;;;;;;;;;;;;7.76;90.36;103143.31;5008523;28;19921;-72
2022/03/23 01:02:34;;;;;;;;;;;;;;;7.67;90.88;103136.31;5010372;28;19917;-72
2022/03/23 01:05:00;;;;;;;;;;;;;;;7.60;90.96;103133.69;5008030;28;20393;-72
2022/03/23 01:07:25;;;;;;;;;;;;;;;7.53;91.01;103130.19;5008647;28;19924;-73
2022/03/23 01:09:50;;;;;;;;;;;;;;;7.47;91.21;103138.88;5007845;28;19947;-72
2022/03/23 01:12:16;;;;;;;;;;;;;;;7.46;91.39;103144.09;5008043;28;19932;-73
2022/03/23 01:14:42;;;;;;;;;;;;;;;7.42;91.36;103138.88;5008975;28;19921;-72
2022/03/23 01:17:08;;;;;;;;;;;;;;;7.39;91.13;103137.97;5006887;28;20392;-72
2022/03/23 01:19:33;;;;;;;;;;;;;;;7.39;91.05;103137.97;5008754;28;20381;-72
2022/03/23 01:21:58;;;;;;;;;;;;;;;7.35;91.39;103137.09;5006976;28;20226;-72
2022/03/23 01:24:24;;;;;;;;;;;;;;;7.31;91.02;103139.69;5007448;28;20359;-74
2022/03/23 01:26:49;;;;;;;;;;;;;;;7.27;91.43;103144.94;5007727;28;20388;-73
2022/03/23 01:29:15;;;;;;;;;;;;;;;7.26;91.40;103131.81;5007203;28;19933;-72
2022/03/23 01:31:40;;;;;;;;;;;;;;;7.26;92.53;103137.06;5007807;28;19924;-73
2022/03/23 01:34:05;;;;;;;;;;;;;;;7.32;93.21;103144.06;5022838;28;19922;-72
2022/03/23 01:36:31;;;;;;;;;;;;;;;7.25;92.35;103138.81;5008477;28;19961;-73
2022/03/23 01:38:57;;;;;;;;;;;;;;;7.24;92.36;103141.41;5022530;28;19941;-72
2022/03/23 01:41:23;;;;;;;;;;;;;;;7.21;92.36;103137.03;5007622;28;19921;-72
2022/03/23 01:43:49;;;;;;;;;;;;;;;7.17;92.38;103137.00;5007363;28;19945;-73
2022/03/23 01:46:17;;;;;;;;;;;;;;;7.24;93.00;103134.44;5007769;28;19922;-73
2022/03/23 01:48:42;;;;;;;;;;;;;;;7.27;93.11;103133.56;5008484;28;19917;-72
2022/03/23 01:51:08;;;;;;;;;;;;;;;7.22;92.77;103136.16;5007756;28;19928;-72
2022/03/23 01:53:33;;;;;;;;;;;;;;;7.17;92.94;103129.19;5007445;28;20403;-73
2022/03/23 01:55:59;;;;;;;;;;;;;;;7.12;92.80;103130.00;5006036;28;20400;-73
2022/03/23 01:58:25;;;;;;;;;;;;;;;7.10;92.58;103121.31;5005234;28;19925;-72
2022/03/23 02:00:51;;;;;;;;;;;;;;;7.08;92.92;103122.16;5005674;28;19921;-71
2022/03/23 02:03:16;;;;;;;;;;;;;;;7.05;93.55;103119.53;5005799;28;19917;-71
2022/03/23 02:05:41;;;;;;;;;;;;;;;7.06;93.07;103124.78;5006494;28;20411;-72
2022/03/23 02:08:06;;;;;;;;;;;;;;;7.05;94.42;103117.78;5005686;28;19947;-71
2022/03/23 02:10:32;;;;;;;;;;;;;;;7.02;93.63;103115.16;5008084;28;20392;-73
2022/03/23 02:12:57;;;;;;;;;;;;;;;7.05;94.29;103109.09;5021995;28;20177;-72
2022/03/23 02:15:25;;;;;;;;;;;;;;;7.03;94.06;103114.28;5006835;28;20012;-70
2022/03/23 02:17:53;;;;;;;;;;;;;;;7.04;93.88;103115.19;5005484;28;19957;-73
2022/03/23 02:20:19;;;;;;;;;;;;;;;7.09;94.83;103119.56;5007241;28;19926;-69
2022/03/23 02:22:44;;;;;;;;;;;;;;;7.13;95.57;103112.59;5006001;28;19926;-70
2022/03/23 02:25:10;;;;;;;;;;;;;;;7.07;94.90;103113.44;5005682;28;19924;-70
2022/03/23 02:27:36;;;;;;;;;;;;;;;7.01;94.81;103115.16;5005938;28;20416;-70
2022/03/23 02:30:03;;;;;;;;;;;;;;;6.94;94.20;103103.78;5004634;28;20008;-71
2022/03/23 02:32:28;;;;;;;;;;;;;;;6.91;94.41;103114.22;5007449;28;20076;-71
2022/03/23 02:34:54;;;;;;;;;;;;;;;6.87;95.20;103109.88;5004660;28;20024;-71
2022/03/23 02:37:19;;;;;;;;;;;;;;;6.84;95.53;103108.09;4987192;28;19917;-71
2022/03/23 02:39:44;;;;;;;;;;;;;;;6.80;94.48;103106.34;5005356;28;19943;-71
2022/03/23 02:42:10;;;;;;;;;;;;;;;6.83;94.76;103116.81;5006256;28;20000;-71
2022/03/23 02:44:36;;;;;;;;;;;;;;;6.83;95.54;103115.94;5006418;28;20384;-72
2022/03/23 02:47:01;;;;;;;;;;;;;;;6.79;94.71;103112.44;5004805;28;19997;-70
2022/03/23 02:49:26;;;;;;;;;;;;;;;6.74;94.67;103109.78;5004057;28;20367;-71
2022/03/23 02:51:52;;;;;;;;;;;;;;;6.68;94.51;103117.56;5004971;28;19932;-70
2022/03/23 03:02:37;;;;;;;;;;;;;;;6.57;95.07;103108.78;5006428;28;19961;-72
2022/03/23 03:05:03;;;;;;;;;;;;;;;6.58;95.27;103110.53;5007462;28;19917;-73
2022/03/23 03:08:44;;;;;;;;;;;;;;;6.58;96.45;103111.44;5007394;28;19924;-74
2022/03/23 03:10:14;;;;;;;;;;;;;;;6.57;95.63;103108.78;5005139;28;19918;-74
2022/03/23 03:12:42;;;;;;;;;;;;;;;6.52;95.95;103111.38;5007214;28;19993;-73
2022/03/23 03:15:09;;;;;;;;;;;;;;;6.51;95.91;103101.78;5006865;28;20071;-73
2022/03/23 03:17:35;;;;;;;;;;;;;;;6.49;96.35;103107.00;5006725;28;19917;-73
2022/03/23 03:20:00;;;;;;;;;;;;;;;6.46;95.80;103116.56;5006600;28;19928;-73
2022/03/23 03:22:25;;;;;;;;;;;;;;;6.49;96.46;103107.00;5007450;28;20328;-73
2022/03/23 03:24:50;;;;;;;;;;;;;;;6.44;96.46;103113.97;4988169;28;19969;-73
2022/03/23 03:27:16;;;;;;;;;;;;;;;6.39;96.61;103113.03;4987034;28;20015;-73
2022/03/23 03:29:41;;;;;;;;;;;;;;;6.37;96.31;103117.38;5009484;28;19937;-73
2022/03/23 03:32:07;;;;;;;;;;;;;;;6.47;96.98;103118.31;4993059;28;20398;-71
2022/03/23 03:34:32;;;;;;;;;;;;;;;6.56;96.79;103115.75;5010232;28;19925;-74
2022/03/23 03:36:57;;;;;;;;;;;;;;;6.57;96.73;103111.41;5010888;28;19924;-72
2022/03/23 03:39:23;;;;;;;;;;;;;;;6.47;96.63;103119.19;5009581;28;20347;-71
2022/03/23 03:41:48;;;;;;;;;;;;;;;6.44;96.56;103121.78;5010860;28;19925;-70
2022/03/23 03:44:14;;;;;;;;;;;;;;;6.34;97.02;103119.94;5009640;28;19921;-70
2022/03/23 03:46:40;;;;;;;;;;;;;;;6.28;96.24;103126.03;5010010;28;19924;-72
2022/03/23 03:49:06;;;;;;;;;;;;;;;6.26;96.86;103119.00;4992383;28;19918;-71
2022/03/23 03:51:31;;;;;;;;;;;;;;;6.22;97.30;103122.47;5009849;28;19924;-71
2022/03/23 03:53:56;;;;;;;;;;;;;;;6.17;96.57;103127.66;5010383;28;20637;-73
2022/03/23 03:56:22;;;;;;;;;;;;;;;6.16;97.19;103129.38;5009336;28;20304;-73
2022/03/23 03:58:48;;;;;;;;;;;;;;;6.22;97.58;103123.34;5024779;28;20384;-72
2022/03/23 04:01:14;;;;;;;;;;;;;;;6.16;97.58;103126.78;5010049;28;19925;-72
2022/03/23 04:03:39;;;;;;;;;;;;;;;6.14;97.61;103125.00;5009650;28;19917;-72
2022/03/23 04:06:06;;;;;;;;;;;;;;;6.09;97.43;103127.59;5009855;28;19922;-72
2022/03/23 04:08:31;;;;;;;;;;;;;;;6.05;97.36;103127.53;5009830;28;19932;-71
2022/03/23 04:10:56;;;;;;;;;;;;;;;6.01;96.53;103135.34;5009872;28;19917;-72
2022/03/23 04:13:22;;;;;;;;;;;;;;;5.97;96.84;103132.66;5007946;28;19945;-72
2022/03/23 04:15:48;;;;;;;;;;;;;;;5.92;96.47;103139.53;5011047;28;20007;-70
2022/03/23 04:18:13;;;;;;;;;;;;;;;5.88;97.05;103139.53;5009742;28;20304;-75
2022/03/23 04:20:38;;;;;;;;;;;;;;;5.90;97.44;103144.75;5008076;28;19964;-74
2022/03/23 04:23:04;;;;;;;;;;;;;;;5.96;97.99;103139.59;5007840;28;19922;-71
2022/03/23 04:25:29;;;;;;;;;;;;;;;5.93;98.20;103144.81;5007204;28;19925;-72
2022/03/23 04:27:55;;;;;;;;;;;;;;;5.90;97.58;103141.28;5008606;28;19952;-73
2022/03/23 04:30:22;;;;;;;;;;;;;;;5.91;97.40;103140.41;5006889;28;20222;-71
2022/03/23 04:32:49;;;;;;;;;;;;;;;5.86;97.82;103140.34;5009392;28;19921;-71
2022/03/23 04:35:14;;;;;;;;;;;;;;;5.81;97.41;103142.91;5006165;28;19924;-72
2022/03/23 04:37:40;;;;;;;;;;;;;;;5.79;97.39;103141.16;5023357;28;19917;-73
2022/03/23 04:40:05;;;;;;;;;;;;;;;5.77;97.48;103146.38;5007102;28;20305;-73
2022/03/23 04:42:31;;;;;;;;;;;;;;;5.72;97.60;103143.72;5007313;28;20166;-73
2022/03/23 04:44:56;;;;;;;;;;;;;;;5.68;97.79;103144.53;5023026;28;19990;-72
2022/03/23 04:47:21;;;;;;;;;;;;;;;5.68;97.46;103146.25;5006999;28;19926;-71
2022/03/23 04:49:48;;;;;;;;;;;;;;;5.65;98.06;103143.63;5007622;28;20384;-73
2022/03/23 04:52:14;;;;;;;;;;;;;;;5.61;97.81;103149.66;5007300;28;19917;-72
2022/03/23 04:54:39;;;;;;;;;;;;;;;5.61;97.71;103153.16;5007848;28;19941;-72
2022/03/23 04:57:04;;;;;;;;;;;;;;;5.60;97.85;103148.81;5008683;28;19929;-72
2022/03/23 04:59:30;;;;;;;;;;;;;;;5.61;98.04;103153.16;5008616;28;19929;-71
2022/03/23 05:01:55;;;;;;;;;;;;;;;5.63;98.93;103161.00;5009974;28;20005;-70
2022/03/23 05:04:20;;;;;;;;;;;;;;;5.65;98.50;103159.28;5007861;28;19925;-72
2022/03/23 05:06:46;;;;;;;;;;;;;;;5.63;98.34;103164.47;5008961;28;19918;-74
2022/03/23 05:09:11;;;;;;;;;;;;;;;5.60;97.88;103150.50;5023745;28;19929;-73
2022/03/23 05:11:36;;;;;;;;;;;;;;;5.58;98.29;103153.97;5008593;28;19921;-73
2022/03/23 05:14:02;;;;;;;;;;;;;;;5.54;98.24;103162.63;5008391;28;20419;-74
2022/03/23 05:16:27;;;;;;;;;;;;;;;5.53;98.88;103152.16;5008042;28;19932;-75
2022/03/23 05:18:52;;;;;;;;;;;;;;;5.67;100.00;103157.56;5008943;28;19929;-75
2022/03/23 05:21:17;;;;;;;;;;;;;;;5.66;99.86;103159.28;4989753;28;20016;-71
2022/03/23 05:23:43;;;;;;;;;;;;;;;5.59;99.13;103152.25;5007225;28;20324;-71
2022/03/23 05:26:08;;;;;;;;;;;;;;;5.53;99.17;103146.97;5007941;28;19917;-71
2022/03/23 05:28:33;;;;;;;;;;;;;;;5.52;99.04;103153.03;5007016;28;20448;-72
2022/03/23 05:30:59;;;;;;;;;;;;;;;5.48;99.30;103156.47;4990691;28;19921;-71
2022/03/23 05:33:24;;;;;;;;;;;;;;;5.47;99.55;103155.59;5006605;28;19928;-71
2022/03/23 05:35:49;;;;;;;;;;;;;;;5.44;99.00;103158.19;5007573;28;19923;-72
2022/03/23 05:38:14;;;;;;;;;;;;;;;5.46;99.78;103155.56;5007272;28;19917;-70
2022/03/23 05:40:40;;;;;;;;;;;;;;;5.48;99.36;103159.09;5005205;28;19983;-71
2022/03/23 05:43:05;;;;;;;;;;;;;;;5.53;100.00;103160.00;5007458;28;20296;-71
2022/03/23 05:45:31;;;;;;;;;;;;;;;5.53;99.91;103162.59;5007745;28;20068;-70
2022/03/23 05:47:56;;;;;;;;;;;;;;;5.54;99.66;103153.94;5007942;28;19925;-71
2022/03/23 05:50:22;;;;;;;;;;;;;;;5.61;100.00;103165.31;5005602;28;19972;-71
2022/03/23 05:52:47;;;;;;;;;;;;;;;5.62;99.28;103172.28;5007736;28;19921;-70
2022/03/23 05:55:12;;;;;;;;;;;;;;;5.65;99.84;103181.00;5007477;28;19929;-72
2022/03/23 05:57:39;;;;;;;;;;;;;;;5.70;98.99;103168.00;5006800;28;19921;-73
2022/03/23 06:00:06;;;;;;;;;;;;;;;5.72;99.78;103169.81;5007077;28;19956;-72
2022/03/23 06:02:31;;;;;;;;;;;;;;;5.80;99.70;103177.69;5005208;28;20012;-75
2022/03/23 06:04:56;;;;;;;;;;;;;;;5.83;98.97;103175.13;4990097;28;20004;-78
2022/03/23 06:07:22;;;;;;;;;;;;;;;5.92;99.13;103183.91;5007601;28;20014;-76
2022/03/23 06:09:47;;;;;;;;;;;;;;;5.97;98.95;103180.47;5007894;28;19918;-77
2022/03/23 06:12:13;;;;;;;;;;;;;;;6.05;99.05;103179.75;5007885;28;20170;-77
2022/03/23 06:14:42;;;;;;;;;;;;;;;6.12;99.09;103173.72;5007441;28;19972;-78
2022/03/23 06:17:07;;;;;;;;;;;;;;;6.18;98.53;103176.38;5008445;28;19917;-77
2022/03/23 06:19:32;;;;;;;;;;;;;;;6.25;98.05;103175.59;4989802;28;19968;-77
2022/03/23 06:21:58;;;;;;;;;;;;;;;6.36;97.66;103177.41;5008679;28;20304;-77
2022/03/23 06:24:23;;;;;;;;;;;;;;;6.41;97.42;103171.38;5005040;28;19921;-76
2022/03/23 06:26:48;;;;;;;;;;;;;;;6.50;96.98;103175.81;5006036;28;19925;-77
2022/03/23 06:29:13;;;;;;;;;;;;;;;6.58;96.54;103181.97;5005453;28;19929;-76
2022/03/23 06:31:39;;;;;;;;;;;;;;;6.71;95.70;103174.22;5005827;28;20296;-78
2022/03/23 06:34:05;;;;;;;;;;;;;;;6.79;94.92;103177.75;5006418;28;19921;-79
2022/03/23 06:36:30;;;;;;;;;;;;;;;6.86;94.16;103178.66;5006124;28;20012;-79
2022/03/23 06:38:55;;;;;;;;;;;;;;;6.91;94.45;103177.84;5007673;28;19956;-79
2022/03/23 06:41:21;;;;;;;;;;;;;;;7.00;92.95;103181.38;5007702;28;19921;-79
2022/03/23 06:43:46;;;;;;;;;;;;;;;7.09;93.74;103182.31;5007281;28;19918;-78
2022/03/23 06:46:11;;;;;;;;;;;;;;;7.17;93.39;103186.69;5007523;28;19925;-76
2022/03/23 06:48:37;;;;;;;;;;;;;;;7.26;92.40;103184.13;5008348;28;19921;-77
2022/03/23 06:51:03;;;;;;;;;;;;;;;7.37;91.38;103177.19;5007139;28;20424;-76
2022/03/23 06:53:29;;;;;;;;;;;;;;;7.44;90.26;103178.09;5008274;28;19928;-77
2022/03/23 06:55:54;;;;;;;;;;;;;;;7.46;90.76;103181.59;5006491;28;20012;-78
2022/03/23 06:58:21;;;;;;;;;;;;;;;7.52;89.85;103181.63;5007225;28;19980;-76
2022/03/23 07:00:46;;;;;;;;;;;;;;;7.57;89.84;103182.53;5006668;28;20067;-77
2022/03/23 07:03:11;;;;;;;;;;;;;;;7.65;89.75;103182.56;5007295;28;19918;-77
2022/03/23 07:05:37;;;;;;;;;;;;;;;7.73;89.77;103185.16;5007033;28;19918;-78
2022/03/23 07:10:43;;;;;;;;;;;;;;;7.95;89.33;103195.69;5006760;28;20205;-77
2022/03/23 07:13:08;;;;;;;;;;;;;;;8.13;87.70;103187.00;4988997;28;19925;-72
2022/03/23 07:15:33;;;;;;;;;;;;;;;8.27;87.81;103184.44;5006855;28;19918;-71
2022/03/23 07:17:59;;;;;;;;;;;;;;;8.38;87.18;103181.81;5007054;28;19980;-71
2022/03/23 07:20:24;;;;;;;;;;;;;;;8.39;86.16;103183.56;5006287;28;20372;-71
2022/03/23 07:22:49;;;;;;;;;;;;;;;8.60;84.99;103177.47;5006116;28;20028;-72
2022/03/23 07:25:15;;;;;;;;;;;;;;;8.64;83.34;103171.34;5006415;28;20339;-72
2022/03/23 07:27:41;;;;;;;;;;;;;;;8.74;82.45;103170.47;5005836;28;20351;-73
2022/03/23 07:30:06;;;;;;;;;;;;;;;8.81;81.32;103159.09;5021237;28;19930;-72
2022/03/23 07:32:32;;;;;;;;;;;;;;;8.98;79.44;103151.19;5005504;28;20384;-72
2022/03/23 07:34:57;;;;;;;;;;;;;;;9.26;78.21;103152.88;5008080;28;20396;-72
2022/03/23 07:37:23;;;;;;;;;;;;;;;9.48;76.99;103144.91;5006110;28;20403;-70
2022/03/23 07:39:48;;;;;;;;;;;;;;;9.61;74.91;103129.94;5006269;28;19965;-71
2022/03/23 07:42:14;;;;;;;;;;;;;;;9.65;74.48;103131.66;5006667;28;20395;-71
2022/03/23 07:44:39;;;;;;;;;;;;;;;9.77;73.88;103128.09;5004878;28;19917;-71
2022/03/23 07:47:10;;;;;;;;;;;;;;;9.89;72.96;103123.63;5006279;28;19918;-72
2022/03/23 07:49:35;;;;;;;;;;;;;;;10.02;72.09;103124.44;5006787;28;19971;-73
2022/03/23 07:52:02;;;;;;;;;;;;;;;10.14;71.53;103118.19;5006210;28;19926;-73
2022/03/23 07:54:27;;;;;;;;;;;;;;;10.14;72.55;103123.44;5006944;28;20052;-72
2022/03/23 07:56:52;;;;;;;;;;;;;;;10.33;72.31;103125.91;5006714;28;20378;-71
2022/03/23 07:59:18;;;;;;;;;;;;;;;10.48;70.17;103119.66;5006179;28;20488;-71
2022/03/23 08:01:43;;;;;;;;;;;;;;;10.64;69.37;103110.75;5005674;28;19933;-73
2022/03/23 08:04:08;;;;;;;;;;;;;;;10.72;67.82;103109.81;5007120;28;19955;-72
2022/03/23 08:06:35;;;;;;;;;;;;;;;10.72;69.04;103113.31;5005822;28;19924;-73
2022/03/23 08:09:01;;;;;;;;;;;;;;;10.94;69.11;103115.72;5005226;28;19948;-72
2022/03/23 08:11:26;;;;;;;;;;;;;;;11.05;68.31;103118.19;5006873;28;19928;-72
2022/03/23 08:13:52;;;;;;;;;;;;;;;11.20;68.10;103119.75;5004441;28;19929;-70
2022/03/23 08:16:17;;;;;;;;;;;;;;;11.28;67.20;103115.28;5008065;28;19922;-70
2022/03/23 08:18:42;;;;;;;;;;;;;;;11.31;67.99;103117.00;5007216;28;20056;-70
2022/03/23 08:21:08;;;;;;;;;;;;;;;11.34;66.26;103111.72;5008407;28;19922;-71
2022/03/23 08:23:34;;;;;;;;;;;;;;;11.53;65.72;103105.28;5008244;28;19922;-72
2022/03/23 08:25:59;;;;;;;;;;;;;;;11.73;64.20;103098.84;5009656;28;19922;-71
2022/03/23 08:28:24;;;;;;;;;;;;;;;12.00;62.97;103086.19;5006768;28;19926;-71
2022/03/23 08:30:49;;;;;;;;;;;;;;;12.16;62.43;103085.03;5007693;28;20043;-71
2022/03/23 08:33:15;;;;;;;;;;;;;;;12.20;61.75;103080.56;5024318;28;19922;-71
2022/03/23 08:35:40;;;;;;;;;;;;;;;13.34;58.59;103068.63;5008763;28;20437;-71
2022/03/23 08:38:06;;;;;;;;;;;;;;;14.94;53.44;103049.56;5008980;28;20012;-70
2022/03/23 08:40:32;;;;;;;;;;;;;;;16.94;49.31;103040.25;5009736;28;19918;-71
2022/03/23 08:42:58;;;;;;;;;;;;;;;18.44;42.99;103179.56;5008204;28;19928;-71
2022/03/23 08:45:24;;;;;;;;;;;;;;;18.96;39.46;103185.28;5008952;28;19997;-71
2022/03/23 08:47:49;;;;;;;;;;;;;;;19.18;38.74;103184.34;5008809;28;19929;-73
2022/03/23 08:50:14;;;;;;;;;;;;;;;19.26;37.06;103187.53;5008767;28;20323;-72
2022/03/23 08:52:41;;;;;;;;;;;;;;;20.58;36.31;103191.81;5004350;28;19940;-72
2022/03/23 08:55:09;;;;;;;;;;;;;;;19.80;35.86;103189.44;5007321;28;19999;-72
2022/03/23 08:57:35;;;;;;;;;;;;;;;20.18;35.10;103197.38;5021553;28;20331;-71
2022/03/23 09:00:00;;;;;;;;;;;;;;;20.69;33.50;103200.13;5007988;28;19918;-71
2022/03/23 09:02:25;;;;;;;;;;;;;;;20.34;33.44;103199.28;5007822;28;20064;-72
2022/03/23 09:04:51;;;;;;;;;;;;;;;20.61;33.83;103198.81;5008391;28;20391;-72
2022/03/23 09:07:16;;;;;;;;;;;;;;;22.13;31.59;103206.63;5008961;28;20384;-72
2022/03/23 09:09:42;;;;;;;;;;;;;;;20.43;33.81;103211.31;5007810;28;19921;-72
2022/03/23 09:12:07;;;;;;;;;;;;;;;20.65;33.67;103205.69;5006777;28;20339;-73
2022/03/23 09:14:33;;;;;;;;;;;;;;;21.94;30.83;103204.97;5007898;28;19931;-72
2022/03/23 09:16:58;;;;;;;;;;;;;;;22.30;29.58;103213.66;5009081;28;20024;-72
2022/03/23 09:19:23;;;;;;;;;;;;;;;22.18;28.24;103210.75;5008086;28;19921;-72
2022/03/23 09:21:50;;;;;;;;;;;;;;;23.17;26.79;103206.59;5008328;28;22653;-72
2022/03/23 09:24:15;;;;;;;;;;;;;;;22.51;29.65;103220.44;4990612;28;20376;-72
2022/03/23 09:26:41;;;;;;;;;;;;;;;22.05;30.15;103215.94;5007807;28;20402;-71
2022/03/23 09:29:07;;;;;;;;;;;;;;;21.39;30.34;103212.47;5008333;28;20379;-70
2022/03/23 09:31:33;;;;;;;;;;;;;;;20.84;31.00;103219.84;4990835;28;20408;-72
2022/03/23 09:33:58;;;;;;;;;;;;;;;20.78;31.15;103211.31;5008768;28;19922;-72
2022/03/23 09:39:04;;;;;;;;;;;;;;;21.49;28.81;103206.63;5007641;28;20001;-72
2022/03/23 09:41:31;;;;;;;;;;;;;;;21.51;28.08;103204.72;5008428;28;20008;-72
2022/03/23 09:43:58;;;;;;;;;;;;;;;23.16;27.90;103202.19;5008764;28;19921;-71
2022/03/23 09:46:23;;;;;;;;;;;;;;;23.81;25.88;103197.22;5007995;28;19991;-72
2022/03/23 09:48:49;;;;;;;;;;;;;;;22.92;25.66;103194.75;5008544;28;20384;-72
2022/03/23 09:51:14;;;;;;;;;;;;;;;22.85;27.03;103199.63;4990506;28;19964;-72
2022/03/23 09:53:40;;;;;;;;;;;;;;;22.77;25.70;103196.53;5009795;28;19925;-73
2022/03/23 09:56:05;;;;;;;;;;;;;;;22.88;25.80;103198.56;5006566;28;19928;-73
2022/03/23 09:58:31;;;;;;;;;;;;;;;21.44;27.20;103202.41;5007729;28;20392;-72
2022/03/23 10:00:56;;;;;;;;;;;;;;;22.63;26.42;103204.56;5007458;28;20017;-71
2022/03/23 10:03:37;;;;;;;;;;;;;;;22.62;25.90;103200.16;5007396;28;20376;-71
2022/03/23 10:06:17;;;;;;;;;;;;;;;22.43;25.87;103203.97;5006756;28;20300;-71
2022/03/23 10:08:58;;;;;;;;;;;;;;;23.38;24.93;103196.38;5007453;28;19917;-71
2022/03/23 10:11:23;;;;;;;;;;;;;;;22.56;25.71;103209.44;5006384;28;20768;-71
2022/03/23 10:13:50;;;;;;;;;;;;;;;22.28;26.82;103204.84;5007536;28;20005;-71
2022/03/23 10:16:30;;;;;;;;;;;;;;;23.59;24.64;103196.78;5007347;28;19924;-72
2022/03/23 10:18:57;;;;;;;;;;;;;;;22.81;25.41;103207.97;5007791;28;19922;-72
2022/03/23 10:21:24;;;;;;;;;;;;;;;23.91;24.15;103203.69;5007138;28;19928;-71
2022/03/23 10:23:51;;;;;;;;;;;;;;;22.45;25.41;103195.84;5006730;28;20012;-72
2022/03/23 10:26:16;;;;;;;;;;;;;;;22.63;24.84;103193.88;5006671;28;19925;-71
2022/03/23 10:28:42;;;;;;;;;;;;;;;21.87;26.24;103208.97;5006711;28;19979;-71
2022/03/23 10:31:22;;;;;;;;;;;;;;;22.04;26.09;103208.88;5006259;28;20388;-72
2022/03/23 10:34:07;;;;;;;;;;;;;;;21.72;27.13;103200.88;5007676;28;20031;-71
2022/03/23 10:36:33;;;;;;;;;;;;;;;22.53;26.57;103198.91;5006382;28;19917;-70
2022/03/23 10:38:59;;;;;;;;;;;;;;;22.53;27.42;103193.53;5006912;28;19924;-71
2022/03/23 10:41:26;;;;;;;;;;;;;;;22.69;26.65;103188.13;5005978;28;19967;-71
2022/03/23 10:43:51;;;;;;;;;;;;;;;22.50;27.50;103199.09;5007361;28;20392;-71
2022/03/23 10:46:17;;;;;;;;;;;;;;;22.42;26.59;103191.53;5006670;28;19964;-72
2022/03/23 10:48:51;;;;;;;;;;;;;;;22.04;27.63;103197.28;5006174;28;19925;-73
2022/03/23 10:51:32;;;;;;;;;;;;;;;22.00;27.75;103190.38;5006633;28;19964;-72
2022/03/23 10:53:57;;;;;;;;;;;;;;;20.67;30.21;103198.47;5006349;28;20432;-71
2022/03/23 10:56:38;;;;;;;;;;;;;;;21.29;29.27;103195.22;5006319;28;20012;-71
2022/03/23 10:59:22;;;;;;;;;;;;;;;20.79;29.64;103197.00;5005079;28;19929;-72
2022/03/23 11:01:57;;;;;;;;;;;;;;;20.10;29.00;103188.88;5005894;28;19925;-70
2022/03/23 11:04:23;;;;;;;;;;;;;;;20.06;29.95;103198.00;4988465;28;19921;-71
2022/03/23 11:06:48;;;;;;;;;;;;;;;19.76;29.70;103190.50;5006208;28;20304;-71
2022/03/23 11:17:04;;;;;;;;;;;;;;;18.34;32.77;103197.75;5005223;28;19925;-72
2022/03/23 11:19:30;;;;;;;;;;;;;;;18.74;32.46;103200.50;5006724;28;19926;-72
2022/03/23 11:21:58;;;;;;;;;;;;;;;18.54;33.22;103208.41;5006440;28;20415;-73
2022/03/23 11:24:24;;;;;;;;;;;;;;;18.47;32.29;103198.09;5005296;28;20138;-73
2022/03/23 11:26:50;;;;;;;;;;;;;;;18.20;33.60;103201.84;5003356;28;19925;-72
2022/03/23 11:29:17;;;;;;;;;;;;;;;18.22;31.53;103200.00;5004837;28;19926;-72
2022/03/23 11:31:42;;;;;;;;;;;;;;;18.06;32.33;103190.91;5007015;28;19933;-73
2022/03/23 11:34:08;;;;;;;;;;;;;;;17.74;33.18;103193.03;5005305;28;19921;-73
2022/03/23 11:36:35;;;;;;;;;;;;;;;17.90;32.51;103190.63;5007954;28;20270;-72
2022/03/23 11:39:04;;;;;;;;;;;;;;;17.91;33.36;103189.69;5005106;28;20068;-73
2022/03/23 11:41:29;;;;;;;;;;;;;;;17.62;32.15;103181.94;5005871;28;19921;-72
2022/03/23 11:43:54;;;;;;;;;;;;;;;17.76;33.57;103183.22;5005854;28;20390;-72
2022/03/23 11:46:21;;;;;;;;;;;;;;;17.98;32.79;103183.22;5006344;28;19925;-72
2022/03/23 11:48:54;;;;;;;;;;;;;;;18.04;31.73;103174.13;5006103;28;19967;-73
2022/03/23 11:51:28;;;;;;;;;;;;;;;17.77;31.89;103172.50;5009555;28;19940;-72
2022/03/23 11:54:08;;;;;;;;;;;;;;;18.01;32.41;103168.94;5008130;28;19926;-73
2022/03/23 11:56:49;;;;;;;;;;;;;;;17.88;32.95;103173.84;5006894;28;19918;-73
2022/03/23 11:59:18;;;;;;;;;;;;;;;17.79;32.76;103169.78;5006242;28;20023;-74
2022/03/23 12:01:44;;;;;;;;;;;;;;;17.77;32.80;103167.19;5011857;28;19926;-78
2022/03/23 12:04:12;;;;;;;;;;;;;;;17.52;32.12;103163.78;5010001;28;19918;-78
2022/03/23 12:06:39;;;;;;;;;;;;;;;17.53;32.82;103165.50;4993581;28;19922;-79
2022/03/23 12:09:05;;;;;;;;;;;;;;;17.45;33.28;103164.00;5009666;28;20444;-78
2022/03/23 12:11:31;;;;;;;;;;;;;;;17.62;32.95;103163.34;5012919;28;19949;-78
2022/03/23 12:13:57;;;;;;;;;;;;;;;17.52;31.99;103156.66;5010401;28;19968;-76
2022/03/23 12:16:42;;;;;;;;;;;;;;;17.65;32.08;103162.34;5010241;28;19925;-79
2022/03/23 12:19:07;;;;;;;;;;;;;;;17.33;32.45;103160.97;4994950;28;20347;-77
2022/03/23 12:21:53;;;;;;;;;;;;;;;17.51;31.67;103149.59;5011386;28;19921;-77
2022/03/23 12:24:28;;;;;;;;;;;;;;;17.49;32.48;103155.91;4994445;28;19917;-78
2022/03/23 12:26:54;;;;;;;;;;;;;;;17.53;32.12;103144.25;5011141;28;20018;-77
2022/03/23 12:29:21;;;;;;;;;;;;;;;17.69;31.86;103148.00;5008979;28;21055;-78
2022/03/23 12:31:47;;;;;;;;;;;;;;;17.70;31.69;103141.78;5012454;28;20000;-77
2022/03/23 12:34:20;;;;;;;;;;;;;;;17.47;31.92;103142.69;5010957;28;20008;-79
2022/03/23 12:39:27;;;;;;;;;;;;;;;17.25;31.59;103140.00;5012675;28;20523;-77
2022/03/23 12:41:54;;;;;;;;;;;;;;;17.22;32.00;103133.00;5012460;28;20412;-76
2022/03/23 12:44:34;;;;;;;;;;;;;;;17.30;31.93;103128.25;5011366;28;19917;-76
2022/03/23 12:47:02;;;;;;;;;;;;;;;17.36;32.16;103121.84;5028090;28;19922;-77
2022/03/23 13:00:27;;;;;;;;;;;;;;;17.50;32.03;103120.44;5006114;28;20059;-76
2022/03/23 13:03:07;;;;;;;;;;;;;;;17.65;32.53;103114.50;5008538;28;19933;-76
2022/03/23 13:05:33;;;;;;;;;;;;;;;17.92;31.02;103114.31;5004947;28;19941;-76
2022/03/23 13:07:59;;;;;;;;;;;;;;;17.69;31.19;103116.09;5009521;28;20495;-75
2022/03/23 13:10:25;;;;;;;;;;;;;;;17.49;31.90;103119.56;5007095;28;20040;-77
2022/03/23 13:12:50;;;;;;;;;;;;;;;17.47;32.53;103121.44;5008932;28;20196;-76
2022/03/23 13:15:16;;;;;;;;;;;;;;;17.62;31.96;103118.16;5007394;28;19933;-75